Ontario, CA

4:53 PM PST on March 06, 2015 (GMT -0800)
Ontario International | Change Station
CLOSE
Current Station
Airport
Location: Ontario,
Elevation: 942 ft
Nearby Weather Stations
Active Advisory: Wind Advisory Active Notice: Public Information Statement

Elev 942 ft 34.06 °N, 117.60 °W | Updated 1 hour ago

Clear
Clear
80 °F
Feels Like 80 °F
N
15
Wind Variable Wind from NE
Gusts 26 mph

Today
High -- | Low -- °F
--% Chance of Precip.
Yesterday
High -- | Low -- °F
Precip. -- in
6:12 AM 5:50 PM
Full, 99% visible
Pressure 29.98 in
Visibility 10.0 miles
Clouds Clear
Dew Point 11 °F
Humidity 7%
Rainfall 0.00 in
Snow Depth Not available.
UV 2 out of 12
Pollen 9.20 out of 12
Air Quality Not available.
Flu Activity Not available.
METAR KONT 062353Z 04013G23KT 10SM CLR 27/M12 A3000 RMK AO2 PK WND 05027/2259 SLP152 T02671117 10278 20228 56019

More Conditions Fewer Conditions

Pressure 29.98 in
Visibility 10.0 miles
Clouds Clear
Dew Point 11 °F
Humidity 7%
Rainfall 0.00 in
Snow Depth Not available.
UV 2 out of 12
Pollen 9.20 out of 12
Air Quality Not available.
Flu Activity Not available.
METAR KONT 062353Z 04013G23KT 10SM CLR 27/M12 A3000 RMK AO2 PK WND 05027/2259 SLP152 T02671117 10278 20228 56019

More Conditions Fewer Conditions

10-Day Weather Forecast

Almanac

Astronomy

Mar. 06, 2015 Rise Set
Actual Time
Civil Twilight
Nautical Twilight
Astronomical Twilight
Moon
Length of Visible Light
Length of Day
Tomorrow will be .
, % of the Moon is Illuminated

Today's Extremes

State Highs State Lows

Community

WunderPhotos

Upload Photos

1,803,469 photos uploaded!

WunderBlogs® & News

Nearby

Air Quality

  Air Quality AQ Index Pollutant
Not available.

Snow Depth

Station Depth Elevation

Earthquake Activity

City Distance Mag. Time & Date
Minimum magnitude displayed is 2.5.

Coastal Water Temperatures

Place Temperature

Nearby Weather Stations

Wind Advisory
Statement as of 1:49 PM PST on March 06, 2015

... Wind Advisory remains in effect until noon PST Saturday...

* winds... areas of northeast to east winds 20 to 30 mph with
gusts to 50 mph.

* Location... strongest winds below passes and canyons and near
coastal mountain slopes.

* Timing... through Saturday morning.

* Impacts... strong winds will make driving difficult for high
profile vehicles.

Precautionary/preparedness actions...

A Wind Advisory means that winds of 35 mph are expected. Winds
this strong can make driving difficult... especially for high
profile vehicles. Use extra caution.